createdAt,value
2018-09-05T00:00:50.725Z,44.33
2018-09-05T00:03:20.240Z,40.33
2018-09-05T00:05:49.533Z,50.73
2018-09-05T00:08:18.958Z,48.47
2018-09-05T00:10:50.453Z,34.80
2018-09-05T00:13:19.590Z,45.57
2018-09-05T00:15:48.991Z,59.57
2018-09-05T00:18:20.454Z,44.70
2018-09-05T00:20:49.689Z,43.30
2018-09-05T00:23:19.008Z,49.63
2018-09-05T00:25:48.361Z,49.50
2018-09-05T00:28:17.671Z,44.23
2018-09-05T00:30:46.994Z,46.03
2018-09-05T00:33:16.409Z,43.07
2018-09-05T00:35:45.733Z,59.57
2018-09-05T00:38:15.089Z,44.20
2018-09-05T00:40:44.437Z,50.57
2018-09-05T00:43:13.897Z,51.63
2018-09-05T00:45:43.260Z,46.80
2018-09-05T00:48:12.496Z,49.47
2018-09-05T00:50:41.851Z,60.50
2018-09-05T00:53:11.149Z,51.53
2018-09-05T00:55:42.752Z,39.73
2018-09-05T00:58:12.128Z,42.73
2018-09-05T01:00:41.670Z,41.63
2018-09-05T01:03:10.946Z,35.17
2018-09-05T01:05:40.449Z,59.47
2018-09-05T01:08:09.670Z,44.43
2018-09-05T01:10:38.914Z,55.43
2018-09-05T01:13:08.102Z,44.67
2018-09-05T01:15:37.417Z,43.87
2018-09-05T01:18:06.769Z,39.50
2018-09-05T01:20:36.094Z,48.17
2018-09-05T01:23:05.446Z,45.57
2018-09-05T01:25:34.657Z,55.03
2018-09-05T01:28:03.920Z,40.17
2018-09-05T01:30:33.038Z,43.17
2018-09-05T01:33:02.365Z,46.43
2018-09-05T01:35:31.514Z,41.63
2018-09-05T01:38:00.677Z,37.70
2018-09-05T01:40:29.809Z,43.80
2018-09-05T01:42:59.013Z,51.40
2018-09-05T01:45:28.278Z,40.67
2018-09-05T01:47:57.522Z,40.77
2018-09-05T01:50:31.694Z,43.10
2018-09-05T01:53:01.126Z,43.00
2018-09-05T01:55:30.369Z,44.67
2018-09-05T01:57:59.627Z,47.53
2018-09-05T02:00:33.694Z,36.77
2018-09-05T02:03:03.642Z,41.83
2018-09-05T02:05:32.878Z,46.73
2018-09-05T02:08:03.115Z,46.33
2018-09-05T02:10:33.055Z,44.83
2018-09-05T02:13:02.900Z,48.00
2018-09-05T02:15:32.022Z,53.67
2018-09-05T02:18:01.487Z,61.33
2018-09-05T02:20:30.727Z,59.07
2018-09-05T02:22:59.995Z,50.43
2018-09-05T02:25:29.235Z,45.70
2018-09-05T02:27:58.562Z,45.57
2018-09-05T02:30:27.673Z,41.47
2018-09-05T02:32:56.870Z,42.40
2018-09-05T02:35:26.038Z,48.87
2018-09-05T02:37:55.450Z,59.67
2018-09-05T02:40:24.726Z,42.17
2018-09-05T02:42:53.974Z,53.63
2018-09-05T02:45:23.334Z,51.90
2018-09-05T02:47:52.518Z,46.17
2018-09-05T02:50:21.760Z,39.20
2018-09-05T02:52:50.840Z,55.97
2018-09-05T02:55:25.142Z,62.73
2018-09-05T02:57:54.316Z,49.97
2018-09-05T03:00:23.552Z,72.93
2018-09-05T03:02:52.792Z,56.03
2018-09-05T03:05:22.211Z,66.77
2018-09-05T03:07:51.454Z,44.43
2018-09-05T03:10:20.714Z,45.10
2018-09-05T03:12:49.826Z,66.20
2018-09-05T03:15:19.138Z,70.60
2018-09-05T03:17:48.345Z,82.13
2018-09-05T03:20:17.570Z,44.00
2018-09-05T03:22:46.797Z,50.03
2018-09-05T03:25:16.174Z,51.17
2018-09-05T03:27:45.422Z,59.67
2018-09-05T03:30:14.675Z,70.67
2018-09-05T03:32:43.974Z,54.53
2018-09-05T03:35:13.193Z,47.87
2018-09-05T03:37:42.503Z,51.30
2018-09-05T03:40:11.848Z,55.63
2018-09-05T03:42:40.951Z,57.27
2018-09-05T03:45:10.213Z,50.63
2018-09-05T03:47:39.433Z,62.30
2018-09-05T03:50:09.343Z,44.27
2018-09-05T03:52:38.533Z,64.20
2018-09-05T03:55:07.934Z,55.43
2018-09-05T03:57:38.225Z,48.73
2018-09-05T04:00:08.189Z,45.90
2018-09-05T04:02:37.499Z,73.63
2018-09-05T04:05:06.775Z,73.80
2018-09-05T04:07:36.044Z,64.20
2018-09-05T04:10:05.556Z,44.57
2018-09-05T04:12:38.749Z,47.77
2018-09-05T04:15:08.157Z,49.57
2018-09-05T04:17:37.561Z,51.73
2018-09-05T04:20:07.819Z,51.97
2018-09-05T04:22:36.925Z,53.77
2018-09-05T04:25:06.128Z,59.67
2018-09-05T04:27:35.442Z,53.37
2018-09-05T04:30:04.901Z,53.10
2018-09-05T04:32:34.149Z,63.57
2018-09-05T04:35:03.549Z,61.37
2018-09-05T04:37:33.706Z,75.70
2018-09-05T04:40:02.901Z,52.37
2018-09-05T04:42:32.398Z,52.40
2018-09-05T04:45:01.738Z,51.57
2018-09-05T04:47:31.082Z,49.20
2018-09-05T04:50:00.396Z,52.80
2018-09-05T04:52:29.726Z,58.83
2018-09-05T04:54:59.078Z,65.87
2018-09-05T04:57:28.394Z,59.03
2018-09-05T04:59:57.595Z,62.80
2018-09-05T05:02:26.958Z,77.57
2018-09-05T05:04:56.434Z,65.77
2018-09-05T05:07:25.704Z,74.67
2018-09-05T05:09:55.174Z,75.27
2018-09-05T05:12:24.498Z,72.73
2018-09-05T05:14:53.874Z,63.70
2018-09-05T05:17:23.195Z,61.17
2018-09-05T05:19:52.446Z,58.17
2018-09-05T05:22:21.604Z,70.60
2018-09-05T05:24:50.763Z,73.83
2018-09-05T05:27:20.092Z,73.93
2018-09-05T05:29:49.256Z,60.67
2018-09-05T05:32:18.559Z,73.37
2018-09-05T05:34:47.886Z,67.43
2018-09-05T05:37:17.194Z,82.03
2018-09-05T05:39:46.459Z,80.53
2018-09-05T05:42:15.786Z,78.87
2018-09-05T05:44:45.159Z,71.63
2018-09-05T05:47:14.506Z,90.70
2018-09-05T05:49:43.754Z,76.10
2018-09-05T05:52:13.075Z,72.20
2018-09-05T05:54:42.251Z,82.17
2018-09-05T05:57:11.600Z,68.43
2018-09-05T05:59:40.895Z,86.83
2018-09-05T06:02:10.239Z,66.40
2018-09-05T06:04:39.546Z,58.47
2018-09-05T06:07:08.934Z,81.10
2018-09-05T06:09:39.099Z,70.73
2018-09-05T06:12:08.507Z,73.13
2018-09-05T06:14:37.828Z,80.30
2018-09-05T06:17:07.191Z,73.03
2018-09-05T06:19:37.315Z,81.93
2018-09-05T06:22:06.658Z,66.33
2018-09-05T06:24:36.157Z,72.70
2018-09-05T06:27:05.534Z,75.67
2018-09-05T06:29:34.821Z,82.73
2018-09-05T06:32:04.206Z,73.27
2018-09-05T06:34:33.400Z,74.20
2018-09-05T06:37:02.739Z,77.50
2018-09-05T06:39:32.043Z,59.17
2018-09-05T06:42:01.843Z,68.00
2018-09-05T06:44:31.072Z,70.57
2018-09-05T06:47:00.436Z,70.33
2018-09-05T06:49:29.575Z,60.87
2018-09-05T06:51:58.867Z,53.47
2018-09-05T06:54:28.165Z,61.03
2018-09-05T06:56:57.459Z,72.93
2018-09-05T06:59:26.741Z,52.70
2018-09-05T07:01:56.053Z,67.00
2018-09-05T07:04:25.288Z,57.83
2018-09-05T07:06:54.501Z,51.40
2018-09-05T07:09:23.715Z,67.33
2018-09-05T07:11:53.055Z,58.67
2018-09-05T07:14:22.273Z,63.73
2018-09-05T07:16:51.676Z,59.97
2018-09-05T07:19:21.081Z,53.93
2018-09-05T07:21:50.485Z,54.13
2018-09-05T07:24:19.727Z,61.03
2018-09-05T07:26:48.967Z,55.37
2018-09-05T07:29:18.233Z,54.90
2018-09-05T07:31:47.487Z,54.00
2018-09-05T07:34:16.941Z,51.60
2018-09-05T07:36:46.237Z,51.07
2018-09-05T07:39:15.337Z,50.47
2018-09-05T07:41:44.601Z,47.77
2018-09-05T07:44:13.790Z,57.30
2018-09-05T07:46:43.030Z,49.80
2018-09-05T07:49:13.012Z,39.90
2018-09-05T07:51:42.223Z,60.37
2018-09-05T07:54:11.435Z,36.93
2018-09-05T07:56:40.651Z,39.60
2018-09-05T07:59:09.939Z,44.57
2018-09-05T08:01:39.197Z,51.53
2018-09-05T08:04:08.719Z,47.00
2018-09-05T08:06:38.000Z,43.00
2018-09-05T08:09:10.576Z,38.70
2018-09-05T08:11:39.952Z,43.40
2018-09-05T08:14:09.210Z,40.83
2018-09-05T08:16:38.498Z,43.00
2018-09-05T08:19:07.987Z,32.67
2018-09-05T08:21:37.296Z,49.80
2018-09-05T08:24:06.755Z,31.60
2018-09-05T08:26:36.115Z,34.90
2018-09-05T08:29:05.523Z,31.30
2018-09-05T08:31:35.149Z,39.63
2018-09-05T08:34:04.526Z,33.90
2018-09-05T08:36:33.928Z,42.90
2018-09-05T08:39:03.626Z,34.00
2018-09-05T08:41:32.871Z,35.23
2018-09-05T08:44:02.280Z,36.87
2018-09-05T08:46:31.451Z,33.43
2018-09-05T08:49:00.775Z,30.43
2018-09-05T08:51:30.018Z,31.47
2018-09-05T08:53:59.250Z,26.53
2018-09-05T08:56:28.633Z,32.23
2018-09-05T08:58:57.940Z,28.37
2018-09-05T09:01:27.197Z,36.87
2018-09-05T09:03:56.521Z,32.80
2018-09-05T09:06:25.931Z,24.10
2018-09-05T09:08:55.285Z,20.03
2018-09-05T09:11:24.476Z,23.20
2018-09-05T09:13:53.730Z,28.13
2018-09-05T09:16:22.975Z,23.17
2018-09-05T09:18:52.274Z,21.10
2018-09-05T09:21:21.458Z,22.37
2018-09-05T09:23:50.799Z,21.87
2018-09-05T09:26:20.168Z,17.03
2018-09-05T09:28:49.422Z,22.33
2018-09-05T09:31:18.737Z,18.40
2018-09-05T09:33:48.066Z,18.33
2018-09-05T09:36:17.379Z,17.90
2018-09-05T09:38:46.638Z,15.27
2018-09-05T09:41:15.946Z,14.13
2018-09-05T09:43:45.266Z,13.07
2018-09-05T09:46:14.502Z,14.73
2018-09-05T09:48:44.019Z,19.37
2018-09-05T09:51:13.214Z,13.37
2018-09-05T09:53:42.615Z,14.30
2018-09-05T09:56:11.932Z,16.10
2018-09-05T09:58:42.287Z,16.27
2018-09-05T10:01:16.610Z,14.00
2018-09-05T10:03:50.884Z,11.83
2018-09-05T10:06:26.122Z,19.17
2018-09-05T10:09:00.694Z,11.07
2018-09-05T10:11:34.822Z,12.60
2018-09-05T10:14:09.348Z,16.37
2018-09-05T10:16:41.360Z,16.43
2018-09-05T10:19:12.109Z,21.17
2018-09-05T10:21:41.389Z,19.70
2018-09-05T10:24:10.594Z,12.00
2018-09-05T10:26:39.890Z,20.93
2018-09-05T10:29:09.334Z,13.57
2018-09-05T10:31:38.684Z,9.17
2018-09-05T10:34:08.635Z,11.87
2018-09-05T10:36:38.002Z,9.63
2018-09-05T10:39:09.551Z,12.17
2018-09-05T10:41:38.935Z,12.63
2018-09-05T10:44:08.975Z,10.37
2018-09-05T10:46:38.893Z,10.77
2018-09-05T10:49:08.726Z,8.17
2018-09-05T10:51:43.070Z,15.50
2018-09-05T10:54:12.639Z,9.57
2018-09-05T10:56:41.931Z,11.17
2018-09-05T10:59:11.222Z,9.93
2018-09-05T11:01:40.629Z,8.67
2018-09-05T11:04:10.472Z,8.07
2018-09-05T11:06:39.851Z,10.63
2018-09-05T11:09:12.999Z,9.30
2018-09-05T11:11:42.338Z,10.07
2018-09-05T11:14:11.926Z,10.57
2018-09-05T11:16:41.842Z,10.33
2018-09-05T11:19:11.192Z,14.73
2018-09-05T11:21:40.860Z,9.67
2018-09-05T11:24:10.318Z,10.70
2018-09-05T11:26:39.772Z,9.97
2018-09-05T11:29:09.114Z,8.07
2018-09-05T11:31:38.457Z,9.30
2018-09-05T11:34:07.869Z,16.13
2018-09-05T11:36:37.109Z,8.77
2018-09-05T11:39:11.098Z,8.93
2018-09-05T11:41:40.490Z,8.20
2018-09-05T11:44:09.830Z,8.33
2018-09-05T11:46:40.015Z,11.33
2018-09-05T11:49:09.852Z,7.97
2018-09-05T11:51:39.126Z,6.40
2018-09-05T11:54:09.022Z,7.50
2018-09-05T11:56:38.374Z,8.67
2018-09-05T11:59:08.323Z,28.47
2018-09-05T12:01:37.639Z,7.33
2018-09-05T12:04:06.827Z,7.20
2018-09-05T12:06:36.606Z,6.17
2018-09-05T12:09:09.515Z,6.63
2018-09-05T12:11:38.945Z,10.70
2018-09-05T12:14:08.892Z,7.00
2018-09-05T12:16:38.737Z,10.30
2018-09-05T12:19:08.592Z,6.53
2018-09-05T12:21:37.821Z,5.97
2018-09-05T12:24:07.009Z,6.57
2018-09-05T12:26:36.381Z,38.27
2018-09-05T12:29:09.815Z,5.77
2018-09-05T12:31:39.271Z,6.80
2018-09-05T12:34:08.643Z,5.63
2018-09-05T12:36:37.935Z,6.33
2018-09-05T12:39:10.475Z,5.03
2018-09-05T12:41:48.522Z,7.57
2018-09-05T12:44:17.830Z,6.60
2018-09-05T12:46:47.166Z,5.43
2018-09-05T12:49:16.427Z,5.87
2018-09-05T12:51:46.581Z,6.30
2018-09-05T12:54:15.827Z,6.90
2018-09-05T12:56:49.443Z,4.77
2018-09-05T12:59:18.864Z,4.50
2018-09-05T13:01:52.078Z,5.33
2018-09-05T13:04:21.348Z,5.37
2018-09-05T13:06:50.861Z,5.80
2018-09-05T13:09:20.574Z,5.93
2018-09-05T13:11:50.847Z,6.80
2018-09-05T13:14:20.144Z,5.33
2018-09-05T13:16:49.637Z,6.50
2018-09-05T13:19:18.950Z,17.07
2018-09-05T13:21:48.258Z,8.63
2018-09-05T13:24:20.377Z,6.00
2018-09-05T13:26:52.114Z,16.93
2018-09-05T13:29:21.781Z,5.47
2018-09-05T13:31:51.188Z,8.50
2018-09-05T13:34:20.549Z,5.00
2018-09-05T13:36:49.886Z,5.13
2018-09-05T13:39:19.126Z,5.23
2018-09-05T13:41:48.519Z,5.23
2018-09-05T13:44:17.855Z,5.37
2018-09-05T13:46:47.074Z,6.83
2018-09-05T13:49:16.346Z,7.20
2018-09-05T13:51:49.586Z,6.22
2018-09-05T13:54:18.899Z,6.67
2018-09-05T13:56:48.374Z,4.70
2018-09-05T13:59:26.936Z,4.97
2018-09-05T14:02:08.805Z,6.75
2018-09-05T14:04:51.331Z,6.00
2018-09-05T14:07:32.109Z,7.10
2018-09-05T14:10:23.436Z,10.30
2018-09-05T14:12:52.762Z,6.22
2018-09-05T14:15:22.053Z,5.87
2018-09-05T14:17:51.303Z,6.22
2018-09-05T14:20:20.742Z,14.20
2018-09-05T14:22:50.314Z,21.27
2018-09-05T14:25:19.710Z,5.33
2018-09-05T14:27:49.074Z,5.67
2018-09-05T14:30:18.386Z,5.85
2018-09-05T14:32:47.810Z,6.95
2018-09-05T14:35:17.126Z,5.15
2018-09-05T14:37:46.706Z,6.42
2018-09-05T14:40:16.086Z,5.92
2018-09-05T14:42:45.541Z,5.00
2018-09-05T14:45:14.846Z,5.62
2018-09-05T14:47:44.663Z,11.10
2018-09-05T14:50:14.061Z,6.83
2018-09-05T14:52:43.614Z,15.43
2018-09-05T14:55:13.457Z,5.10
2018-09-05T14:57:43.458Z,9.00
2018-09-05T15:00:13.849Z,5.20
2018-09-05T15:02:45.441Z,5.37
2018-09-05T15:05:14.742Z,5.35
2018-09-05T15:07:47.694Z,5.30
2018-09-05T15:10:17.378Z,5.80
2018-09-05T15:12:47.110Z,7.85
2018-09-05T15:15:17.313Z,9.33
2018-09-05T15:17:46.647Z,11.95
2018-09-05T15:20:15.969Z,5.67
2018-09-05T15:22:45.340Z,5.22
2018-09-05T15:25:14.793Z,4.87
2018-09-05T15:27:44.088Z,6.15
2018-09-05T15:30:13.355Z,7.37
2018-09-05T15:32:42.548Z,7.03
2018-09-05T15:35:11.935Z,6.58
2018-09-05T15:37:41.346Z,4.42
2018-09-05T15:40:10.746Z,5.72
2018-09-05T15:42:41.143Z,5.28
2018-09-05T15:45:10.635Z,5.20
2018-09-05T15:47:40.026Z,5.10
2018-09-05T15:50:09.606Z,24.13
2018-09-05T15:52:38.918Z,5.73
2018-09-05T15:55:08.399Z,9.33
2018-09-05T15:57:38.029Z,4.97
2018-09-05T16:00:07.549Z,4.97
2018-09-05T16:02:37.063Z,5.90
2018-09-05T16:05:06.650Z,5.27
2018-09-05T16:07:36.171Z,10.53
2018-09-05T16:10:05.517Z,8.53
2018-09-05T16:12:35.016Z,6.30
2018-09-05T16:15:04.617Z,6.03
2018-09-05T16:17:33.918Z,5.90
2018-09-05T16:20:03.794Z,15.20
2018-09-05T16:22:33.307Z,6.53
2018-09-05T16:25:02.794Z,5.90
2018-09-05T16:27:32.127Z,6.20
2018-09-05T16:30:01.494Z,6.20
2018-09-05T16:32:30.989Z,6.30
2018-09-05T16:35:00.435Z,11.03
2018-09-05T16:37:29.794Z,5.33
2018-09-05T16:39:59.213Z,6.10
2018-09-05T16:42:28.527Z,5.63
2018-09-05T16:44:58.065Z,47.57
2018-09-05T16:47:27.521Z,7.40
2018-09-05T16:49:57.022Z,6.40
2018-09-05T16:52:29.850Z,6.67
2018-09-05T16:54:59.839Z,6.77
2018-09-05T16:57:29.327Z,5.50
2018-09-05T16:59:58.775Z,11.53
2018-09-05T17:02:28.310Z,6.20
2018-09-05T17:04:57.658Z,7.90
2018-09-05T17:07:27.032Z,6.47
2018-09-05T17:09:56.402Z,6.83
2018-09-05T17:12:25.914Z,6.90
2018-09-05T17:14:55.270Z,5.70
2018-09-05T17:17:24.694Z,17.93
2018-09-05T17:19:54.174Z,7.07
2018-09-05T17:22:23.691Z,6.33
2018-09-05T17:24:53.162Z,7.07
2018-09-05T17:27:22.650Z,6.63
2018-09-05T17:29:52.146Z,9.50
2018-09-05T17:32:21.534Z,10.13
2018-09-05T17:34:50.842Z,12.30
2018-09-05T17:37:20.230Z,8.13
2018-09-05T17:39:49.668Z,6.03
2018-09-05T17:42:22.634Z,5.90
2018-09-05T17:44:52.013Z,6.30
2018-09-05T17:47:21.312Z,6.77
2018-09-05T17:49:50.691Z,5.67
2018-09-05T17:52:20.111Z,6.30
2018-09-05T17:54:49.716Z,7.23
2018-09-05T17:57:19.050Z,5.90
2018-09-05T17:59:48.472Z,5.40
2018-09-05T18:02:17.884Z,7.30
2018-09-05T18:04:47.320Z,5.63
2018-09-05T18:07:16.942Z,7.77
2018-09-05T18:09:46.406Z,7.57
2018-09-05T18:12:15.740Z,4.80
2018-09-05T18:14:45.144Z,5.10
2018-09-05T18:17:14.552Z,5.17
2018-09-05T18:19:43.846Z,6.10
2018-09-05T18:22:13.179Z,11.27
2018-09-05T18:24:42.619Z,24.50
2018-09-05T18:27:12.006Z,7.77
2018-09-05T18:29:41.464Z,5.70
2018-09-05T18:32:11.027Z,6.63
2018-09-05T18:34:40.359Z,7.50
2018-09-05T18:37:09.711Z,12.13
2018-09-05T18:39:40.019Z,5.73
2018-09-05T18:42:09.312Z,5.40
2018-09-05T18:44:38.747Z,5.80
2018-09-05T18:47:08.007Z,8.93
2018-09-05T18:49:37.469Z,4.67
2018-09-05T18:52:07.241Z,5.30
2018-09-05T18:54:36.684Z,6.40
2018-09-05T18:57:06.601Z,6.93
2018-09-05T18:59:36.063Z,9.10
2018-09-05T19:02:05.659Z,6.40
2018-09-05T19:04:35.823Z,4.67
2018-09-05T19:07:05.328Z,5.23
2018-09-05T19:09:34.778Z,10.10
2018-09-05T19:12:04.214Z,4.47
2018-09-05T19:14:34.637Z,6.63
2018-09-05T19:17:03.978Z,14.93
2018-09-05T19:19:33.279Z,12.93
2018-09-05T19:22:02.647Z,5.23
2018-09-05T19:24:33.123Z,16.23
2018-09-05T19:27:02.530Z,5.30
2018-09-05T19:29:32.031Z,6.13
2018-09-05T19:32:01.450Z,6.40
2018-09-05T19:34:30.896Z,5.67
2018-09-05T19:37:00.573Z,6.90
2018-09-05T19:39:29.952Z,5.20
2018-09-05T19:41:59.258Z,5.97
2018-09-05T19:44:28.778Z,10.63
2018-09-05T19:46:59.290Z,6.87
2018-09-05T19:49:28.975Z,32.77
2018-09-05T19:51:58.407Z,9.50
2018-09-05T19:54:27.764Z,5.30
2018-09-05T19:56:57.147Z,14.93
2018-09-05T19:59:26.626Z,6.87
2018-09-05T20:01:56.310Z,16.97
2018-09-05T20:04:25.770Z,6.97
2018-09-05T20:06:55.198Z,4.00
2018-09-05T20:09:24.600Z,6.27
2018-09-05T20:11:54.090Z,9.30
2018-09-05T20:14:23.453Z,7.03
2018-09-05T20:16:52.781Z,7.07
2018-09-05T20:19:22.120Z,6.20
2018-09-05T20:21:52.347Z,9.83
2018-09-05T20:24:28.845Z,6.40
2018-09-05T20:26:58.434Z,5.13
2018-09-05T20:29:28.090Z,5.83
2018-09-05T20:31:57.359Z,12.17
2018-09-05T20:34:26.778Z,5.20
2018-09-05T20:36:56.330Z,5.90
2018-09-05T20:39:25.774Z,7.80
2018-09-05T20:41:55.260Z,13.40
2018-09-05T20:44:24.621Z,7.50
2018-09-05T20:46:53.959Z,8.43
2018-09-05T20:49:23.287Z,7.03
2018-09-05T20:51:52.674Z,5.53
2018-09-05T20:54:29.345Z,8.73
2018-09-05T20:56:58.818Z,5.93
2018-09-05T20:59:28.283Z,4.77
2018-09-05T21:01:57.767Z,6.00
2018-09-05T21:04:27.201Z,6.73
2018-09-05T21:06:56.809Z,14.03
2018-09-05T21:09:26.174Z,11.30
2018-09-05T21:11:55.582Z,5.03
2018-09-05T21:14:25.242Z,5.47
2018-09-05T21:16:54.674Z,9.97
2018-09-05T21:19:24.042Z,6.73
2018-09-05T21:21:53.270Z,5.60
2018-09-05T21:24:22.650Z,5.20
2018-09-05T21:26:52.229Z,5.90
2018-09-05T21:29:21.743Z,6.77
2018-09-05T21:31:51.034Z,5.43
2018-09-05T21:34:20.402Z,6.87
2018-09-05T21:36:49.682Z,5.37
2018-09-05T21:39:19.158Z,7.13
2018-09-05T21:41:48.508Z,15.27
2018-09-05T21:44:17.922Z,6.43
2018-09-05T21:46:47.361Z,8.20
2018-09-05T21:49:16.694Z,7.20
2018-09-05T21:51:46.050Z,6.73
2018-09-05T21:54:15.482Z,6.10
2018-09-05T21:56:44.853Z,11.90
2018-09-05T21:59:14.293Z,18.23
2018-09-05T22:01:43.601Z,5.50
2018-09-05T22:04:13.053Z,6.40
2018-09-05T22:06:42.480Z,6.23
2018-09-05T22:09:12.570Z,12.40
2018-09-05T22:11:41.855Z,7.23
2018-09-05T22:14:11.270Z,7.13
2018-09-05T22:16:40.647Z,8.47
2018-09-05T22:19:10.062Z,6.30
2018-09-05T22:21:39.504Z,5.23
2018-09-05T22:24:09.019Z,7.23
2018-09-05T22:26:38.474Z,14.03
2018-09-05T22:29:07.940Z,15.30
2018-09-05T22:31:37.342Z,7.10
2018-09-05T22:34:06.652Z,7.40
2018-09-05T22:36:36.033Z,4.97
2018-09-05T22:39:06.214Z,7.67
2018-09-05T22:41:35.536Z,11.43
2018-09-05T22:44:15.672Z,8.10
2018-09-05T22:46:55.798Z,7.70
2018-09-05T22:49:54.738Z,8.30
2018-09-05T22:54:46.849Z,5.50
2018-09-05T22:57:39.218Z,7.77
2018-09-05T23:00:19.348Z,6.97
2018-09-05T23:02:58.335Z,7.00
2018-09-05T23:08:44.789Z,6.43
2018-09-05T23:12:22.510Z,9.57
2018-09-05T23:15:02.834Z,7.23
2018-09-05T23:17:43.026Z,9.43
2018-09-05T23:21:20.397Z,14.33
2018-09-05T23:24:00.697Z,7.67
2018-09-05T23:26:30.233Z,6.77
2018-09-05T23:28:59.626Z,8.33
2018-09-05T23:31:28.911Z,16.80
2018-09-05T23:33:58.293Z,6.03
2018-09-05T23:36:27.681Z,7.40
2018-09-05T23:38:56.973Z,7.53
2018-09-05T23:41:26.403Z,7.07
2018-09-05T23:43:55.833Z,10.10
2018-09-05T23:46:25.213Z,6.93
2018-09-05T23:48:54.509Z,7.20
2018-09-05T23:51:23.834Z,7.70
2018-09-05T23:53:53.106Z,6.30
2018-09-05T23:56:22.612Z,6.90
2018-09-05T23:58:51.983Z,6.60
